»·PEaware :: EAW121 KSBA-KLAS

EAW121 :: KSBA-KLAS

FLIGHT INFORMATION

Flight Status: Arrived
Operator: Unknown
More flights by this operator :: More flights under this callsign
Pilot: Dave P. (45)
Aircraft: BOEING 737-800
(B738)
More flights by this aircraft type
Origin: KSBA Santa Barbara Mun
United States
Destination: KLAS McCarran Intl
United States
More flights between these airports :: More routes between these airports
Route: MISHN2 NNAVY MISEN KEPEC6
File this flight plan on PilotEdge
Remarks: EAW = Eagle Airways, callsign is EAGLE
Altitude:
(Current/Filed)
29,000ft
Speed:
(Current/Filed)
447kts
Departed: 07-Nov-18 05:14 PM
Arrived: 07-Nov-18 06:04 PM
Distance/Time
Traveled:
250nm/0:50
Distance/Time
To Go:
Arrived

Flight Plot

Page will automatically refresh every two minutes.

Flight plan parsing failed; only flown route is shown


Map Options




Map Legend


Flown Route
Filed Route
Departure Airport
Arrival Airport
Navaid (VOR, NDB)
Fix

Horizontal Profiles

Position Reports

Time Latitude Longitude Heading Altitude Ground
Speed
07-Nov-18 16:52 34.424260 -119.836972 104 18ft 0kts
07-Nov-18 16:53 34.424260 -119.836972 104 18ft 0kts
07-Nov-18 16:54 34.424260 -119.836972 104 18ft 0kts
07-Nov-18 16:55 34.424260 -119.836972 104 18ft 0kts
07-Nov-18 16:56 34.424260 -119.836972 104 18ft 0kts
07-Nov-18 16:57 34.424260 -119.836972 104 18ft 0kts
07-Nov-18 16:58 34.424260 -119.836972 104 18ft 0kts
07-Nov-18 16:59 34.424260 -119.836972 104 18ft 0kts
07-Nov-18 17:00 34.424260 -119.836972 104 18ft 0kts
07-Nov-18 17:01 34.424260 -119.836972 104 18ft 0kts
07-Nov-18 17:02 34.424260 -119.836972 104 18ft 0kts
07-Nov-18 17:03 34.424260 -119.836972 104 18ft 0kts
07-Nov-18 17:04 34.424260 -119.836972 104 18ft 0kts
07-Nov-18 17:05 34.424260 -119.836972 104 18ft 0kts
07-Nov-18 17:06 34.424260 -119.836972 104 18ft 0kts
07-Nov-18 17:07 34.424364 -119.837461 104 18ft 2kts
07-Nov-18 17:08 34.424368 -119.837479 104 18ft 0kts
07-Nov-18 17:09 34.424368 -119.837479 104 18ft 0kts
07-Nov-18 17:10 34.424367 -119.837477 104 18ft 0kts
07-Nov-18 17:11 34.424488 -119.837334 355 18ft 4kts
07-Nov-18 17:12 34.426724 -119.837581 89 18ft 11kts
07-Nov-18 17:13 34.427025 -119.834914 4 18ft 0kts
07-Nov-18 17:14 34.427026 -119.834914 4 18ft 0kts
07-Nov-18 17:15 34.427027 -119.834914 4 18ft 0kts
07-Nov-18 17:16 34.427934 -119.835007 267 18ft 0kts
07-Nov-18 17:17 34.427391 -119.867716 271 810ft 171kts
07-Nov-18 17:18 34.419899 -119.925452 231 2984ft 209kts
07-Nov-18 17:19 34.361216 -119.900616 121 3754ft 282kts
07-Nov-18 17:20 34.319787 -119.816818 118 7126ft 299kts
07-Nov-18 17:21 34.275770 -119.727745 115 10104ft 316kts
07-Nov-18 17:22 34.281758 -119.618811 70 11708ft 366kts
07-Nov-18 17:23 34.310526 -119.495270 71 14201ft 390kts
07-Nov-18 17:24 34.340426 -119.365704 71 16797ft 410kts
07-Nov-18 17:25 34.366481 -119.253096 69 18774ft 425kts
07-Nov-18 17:26 34.406704 -119.089452 70 21300ft 445kts
07-Nov-18 17:27 34.440813 -118.942155 71 23218ft 460kts
07-Nov-18 17:28 34.469646 -118.816073 71 24632ft 472kts
07-Nov-18 17:29 34.504956 -118.660724 71 26252ft 485kts
07-Nov-18 17:30 34.547108 -118.474068 71 28168ft 492kts
07-Nov-18 17:31 34.577103 -118.340566 71 29041ft 496kts
07-Nov-18 17:32 34.619594 -118.153246 70 29033ft 492kts
07-Nov-18 17:33 34.650488 -118.019756 71 29028ft 493kts
07-Nov-18 17:34 34.686621 -117.859260 72 29010ft 494kts
07-Nov-18 17:35 34.720529 -117.697338 72 28985ft 494kts
07-Nov-18 17:36 34.754190 -117.535102 72 28994ft 495kts
07-Nov-18 17:37 34.788094 -117.372739 72 28999ft 495kts
07-Nov-18 17:38 34.821690 -117.210287 72 29003ft 495kts
07-Nov-18 17:39 34.855204 -117.047506 72 28982ft 496kts
07-Nov-18 17:40 34.888265 -116.884406 72 28943ft 496kts
07-Nov-18 17:41 34.925580 -116.725382 61 28881ft 483kts
07-Nov-18 17:42 34.996379 -116.591471 49 26993ft 461kts
07-Nov-18 17:43 35.068477 -116.464248 49 24929ft 448kts
07-Nov-18 17:44 35.144825 -116.349775 39 23145ft 423kts
07-Nov-18 17:45 35.225633 -116.249056 39 21594ft 411kts
07-Nov-18 17:46 35.304564 -116.149815 39 20082ft 400kts
07-Nov-18 17:47 35.381183 -116.053466 39 18614ft 389kts
07-Nov-18 17:48 35.455628 -115.959615 39 17215ft 379kts
07-Nov-18 17:49 35.528423 -115.867611 40 15835ft 372kts
07-Nov-18 17:50 35.598767 -115.777979 41 14484ft 355kts
07-Nov-18 17:51 35.665886 -115.692323 41 13188ft 339kts
07-Nov-18 17:52 35.732698 -115.619799 29 12674ft 307kts
07-Nov-18 17:53 35.803551 -115.562172 29 12265ft 307kts
07-Nov-18 17:54 35.874569 -115.504079 29 11874ft 305kts
07-Nov-18 17:55 35.945325 -115.445936 29 11488ft 304kts
07-Nov-18 17:56 36.014486 -115.388310 38 11076ft 292kts
07-Nov-18 17:57 36.026561 -115.294849 98 10073ft 287kts
07-Nov-18 17:58 36.018235 -115.197682 94 8946ft 280kts
07-Nov-18 17:59 36.012297 -115.107405 94 8385ft 239kts
07-Nov-18 18:00 36.007364 -115.031057 94 7207ft 219kts
07-Nov-18 18:01 36.002957 -114.962755 94 6071ft 190kts
07-Nov-18 18:02 36.021241 -114.914165 6 4550ft 176kts
07-Nov-18 18:03 36.065095 -114.929756 304 4509ft 185kts
07-Nov-18 18:04 36.073935 -114.990575 269 4309ft 187kts
07-Nov-18 18:05 36.073721 -115.051747 270 3355ft 168kts
07-Nov-18 18:06 36.073673 -115.106552 270 2512ft 154kts
07-Nov-18 18:07 36.073642 -115.147444 269 2189ft 22kts
07-Nov-18 18:08 36.076218 -115.151820 333 2189ft 18kts
07-Nov-18 18:09 36.080460 -115.154336 335 2189ft 15kts
07-Nov-18 18:10 36.083538 -115.155214 2 2189ft 8kts
07-Nov-18 18:11 36.084632 -115.154467 33 2189ft 0kts
07-Nov-18 18:12 36.084679 -115.154428 33 2189ft 0kts
07-Nov-18 18:13 36.084679 -115.154428 33 2189ft 0kts
07-Nov-18 18:14 36.084679 -115.154428 33 2189ft 0kts
07-Nov-18 18:15 36.084679 -115.154428 33 2189ft 0kts
07-Nov-18 18:16 36.084679 -115.154428 33 2189ft 0kts
07-Nov-18 18:17 36.084679 -115.154428 33 2189ft 0kts
07-Nov-18 18:18 36.084679 -115.154428 33 2189ft 0kts
07-Nov-18 18:19 36.084679 -115.154428 33 2189ft 0kts
07-Nov-18 18:20 36.084679 -115.154428 33 2189ft 0kts

Navigation Log

Ident Type
Flight plan parsing failed, navigation log unavailable